Time;durP1;ratioP1;P1;durP2;ratioP2;P2;SDS_P1;SDS_P2;PMS_P1;PMS_P2;Temp;Humidity;BMP_temperature;BMP_pressure;BME280_temperature;BME280_humidity;BME280_pressure;Samples;Min_cycle;Max_cycle;Signal;HPM_P1;HPM_P2
2023/12/09 00:01:20;;;;;;;14.25;6.55;;;6.40;99.90;;;;;;5043829;28;20103;-75
2023/12/09 00:03:45;;;;;;;17.98;7.80;;;6.40;99.90;;;;;;5052960;28;20116;-75
2023/12/09 00:06:11;;;;;;;16.20;8.45;;;6.30;99.90;;;;;;5047270;28;20026;-75
2023/12/09 00:08:37;;;;;;;18.08;7.80;;;6.40;99.90;;;;;;5032380;28;20033;-75
2023/12/09 00:11:03;;;;;;;16.85;8.32;;;6.40;99.90;;;;;;5034415;28;20175;-75
2023/12/09 00:13:32;;;;;;;21.52;9.13;;;6.30;99.90;;;;;;5048859;28;20025;-75
2023/12/09 00:15:58;;;;;;;25.23;9.10;;;6.30;99.90;;;;;;5035396;28;20090;-75
2023/12/09 00:18:24;;;;;;;15.00;7.63;;;6.40;99.90;;;;;;5020022;28;20029;-75
2023/12/09 00:20:50;;;;;;;12.70;7.45;;;6.40;99.90;;;;;;5029728;28;20040;-75
2023/12/09 00:23:16;;;;;;;16.55;7.60;;;6.30;99.90;;;;;;5052627;28;20024;-75
2023/12/09 00:25:42;;;;;;;14.73;7.75;;;6.30;99.90;;;;;;5053065;28;20029;-75
2023/12/09 00:28:07;;;;;;;19.95;8.00;;;6.30;99.90;;;;;;5035741;28;20068;-75
2023/12/09 00:30:33;;;;;;;15.60;7.22;;;6.30;99.90;;;;;;5047471;28;20037;-75
2023/12/09 00:32:59;;;;;;;20.15;9.75;;;6.20;99.90;;;;;;5048368;28;20099;-75
2023/12/09 00:35:25;;;;;;;20.08;8.45;;;6.20;99.90;;;;;;5026575;28;20115;-76
2023/12/09 00:37:50;;;;;;;22.02;8.93;;;6.40;99.90;;;;;;5026937;28;20048;-76
2023/12/09 00:40:18;;;;;;;17.88;8.45;;;6.40;99.90;;;;;;5034322;28;20529;-76
2023/12/09 00:42:44;;;;;;;15.30;8.68;;;6.30;99.90;;;;;;5033146;28;20037;-75
2023/12/09 00:45:10;;;;;;;13.45;7.72;;;6.40;99.90;;;;;;5041913;28;20025;-75
2023/12/09 00:47:36;;;;;;;17.15;8.20;;;6.40;99.90;;;;;;5031464;28;20029;-74
2023/12/09 00:50:02;;;;;;;20.67;8.80;;;6.40;99.90;;;;;;5034466;28;20036;-74
2023/12/09 00:52:28;;;;;;;17.70;7.47;;;6.40;99.90;;;;;;5052120;28;20036;-74
2023/12/09 00:54:54;;;;;;;12.35;6.90;;;6.40;99.90;;;;;;5030741;28;20029;-74
2023/12/09 00:57:20;;;;;;;26.45;8.48;;;6.40;99.90;;;;;;5068651;28;20532;-74
2023/12/09 00:59:47;;;;;;;15.85;7.22;;;6.40;99.90;;;;;;5049583;28;20025;-74
2023/12/09 01:02:13;;;;;;;15.18;6.68;;;6.50;99.90;;;;;;5051643;28;20094;-74
2023/12/09 01:04:38;;;;;;;19.58;7.38;;;6.50;99.90;;;;;;5051154;28;20029;-73
2023/12/09 01:07:04;;;;;;;16.25;9.13;;;6.50;99.90;;;;;;5034922;28;20021;-74
2023/12/09 01:09:30;;;;;;;16.77;8.05;;;6.40;99.90;;;;;;5042326;28;20495;-74
2023/12/09 01:11:56;;;;;;;15.82;6.82;;;6.40;99.90;;;;;;5051507;28;20507;-74
2023/12/09 01:14:21;;;;;;;18.65;8.38;;;6.30;99.90;;;;;;5051305;28;20447;-74
2023/12/09 01:16:47;;;;;;;24.60;7.97;;;6.40;99.90;;;;;;5051184;28;20112;-74
2023/12/09 01:19:13;;;;;;;10.90;7.43;;;6.40;99.90;;;;;;5050494;28;20436;-74
2023/12/09 01:21:39;;;;;;;17.48;9.18;;;6.30;99.90;;;;;;5051061;28;20064;-74
2023/12/09 01:24:05;;;;;;;18.77;8.32;;;6.30;99.90;;;;;;5051044;28;20025;-74
2023/12/09 01:26:31;;;;;;;12.65;6.53;;;6.30;99.90;;;;;;5047614;28;20025;-74
2023/12/09 01:28:59;;;;;;;11.77;7.22;;;6.40;99.90;;;;;;5051348;28;20028;-74
2023/12/09 01:31:25;;;;;;;19.10;8.80;;;6.40;99.90;;;;;;5046496;28;20049;-74
2023/12/09 01:33:51;;;;;;;20.85;8.45;;;6.40;99.90;;;;;;5050560;28;20717;-74
2023/12/09 01:36:17;;;;;;;20.25;8.70;;;6.30;99.90;;;;;;5050695;28;20041;-74
2023/12/09 01:38:42;;;;;;;23.85;10.13;;;6.30;99.90;;;;;;5042513;28;20052;-74
2023/12/09 01:41:08;;;;;;;18.70;8.70;;;6.40;99.90;;;;;;5042472;28;20074;-74
2023/12/09 01:43:34;;;;;;;21.95;9.43;;;6.30;99.90;;;;;;5050590;28;20057;-74
2023/12/09 01:46:07;;;;;;;22.58;9.43;;;6.30;99.90;;;;;;5051429;28;20436;-75
2023/12/09 01:48:36;;;;;;;19.50;9.70;;;6.30;99.90;;;;;;5051234;28;20052;-74
2023/12/09 01:51:04;;;;;;;22.20;8.70;;;6.30;99.90;;;;;;5045939;28;20029;-75
2023/12/09 01:53:31;;;;;;;14.23;7.53;;;6.30;99.90;;;;;;5033953;28;20017;-74
2023/12/09 01:56:05;;;;;;;18.10;9.20;;;6.30;99.90;;;;;;5045572;28;20060;-74
2023/12/09 01:58:34;;;;;;;12.40;7.10;;;6.30;99.90;;;;;;5049819;28;20501;-74
2023/12/09 02:01:00;;;;;;;20.45;9.65;;;6.30;99.90;;;;;;5046366;28;20041;-74
2023/12/09 02:03:26;;;;;;;17.80;8.30;;;6.30;99.90;;;;;;5042978;28;20025;-74
2023/12/09 02:05:51;;;;;;;15.60;8.45;;;6.30;99.90;;;;;;5044842;28;20120;-74
2023/12/09 02:08:17;;;;;;;20.27;9.27;;;6.30;99.90;;;;;;5045907;28;20112;-74
2023/12/09 02:10:47;;;;;;;15.38;7.63;;;6.40;99.90;;;;;;5049475;28;20036;-75
2023/12/09 02:13:22;;;;;;;14.27;7.18;;;6.40;99.90;;;;;;5049932;28;20021;-74
2023/12/09 02:15:57;;;;;;;14.35;8.15;;;6.40;99.90;;;;;;5049589;28;20033;-75
2023/12/09 02:18:26;;;;;;;16.05;7.55;;;6.50;99.90;;;;;;5050304;28;20039;-74
2023/12/09 02:20:52;;;;;;;13.95;6.43;;;6.40;99.90;;;;;;5050905;28;20072;-74
2023/12/09 02:23:17;;;;;;;14.52;7.32;;;6.40;99.90;;;;;;5047044;28;20068;-74
2023/12/09 02:25:44;;;;;;;15.15;7.63;;;6.40;99.90;;;;;;5024547;28;20122;-74
2023/12/09 02:28:22;;;;;;;12.68;6.70;;;6.40;99.90;;;;;;5049825;28;20025;-74
2023/12/09 02:31:09;;;;;;;13.30;6.38;;;6.30;99.90;;;;;;5023814;28;20053;-74
2023/12/09 02:33:36;;;;;;;10.07;5.57;;;6.30;99.90;;;;;;5028536;28;20041;-74
2023/12/09 02:36:03;;;;;;;23.33;8.35;;;6.30;99.90;;;;;;5024414;28;20128;-74
2023/12/09 02:38:31;;;;;;;11.75;6.70;;;6.30;99.90;;;;;;5028273;28;20391;-74
2023/12/09 02:40:58;;;;;;;15.48;7.53;;;6.30;99.90;;;;;;5023175;28;20080;-74
2023/12/09 02:43:24;;;;;;;20.65;6.68;;;6.30;99.90;;;;;;5029101;28;20037;-74
2023/12/09 02:45:49;;;;;;;18.27;6.93;;;6.20;99.90;;;;;;5023376;28;20042;-74
2023/12/09 02:48:15;;;;;;;10.45;6.85;;;6.30;99.90;;;;;;5012077;28;20567;-74
2023/12/09 02:50:41;;;;;;;15.45;6.40;;;6.30;99.90;;;;;;5027637;28;20436;-74
2023/12/09 02:53:06;;;;;;;15.68;8.30;;;6.20;99.90;;;;;;5028919;28;20497;-74
2023/12/09 02:55:32;;;;;;;16.42;8.38;;;6.20;99.90;;;;;;5006905;28;20495;-74
2023/12/09 02:57:58;;;;;;;14.88;7.13;;;6.20;99.90;;;;;;5028328;28;20624;-74
2023/12/09 03:00:24;;;;;;;10.35;6.35;;;6.20;99.90;;;;;;5027545;28;20132;-74
2023/12/09 03:02:50;;;;;;;11.65;5.82;;;6.20;99.90;;;;;;5050631;28;20021;-74
2023/12/09 03:05:15;;;;;;;16.08;6.85;;;6.30;99.90;;;;;;5045022;28;20527;-74
2023/12/09 03:07:41;;;;;;;18.27;6.95;;;6.20;99.90;;;;;;5050833;28;20033;-74
2023/12/09 03:10:07;;;;;;;13.43;7.70;;;6.30;99.90;;;;;;5044066;28;20029;-74
2023/12/09 03:12:33;;;;;;;14.23;7.53;;;6.20;99.90;;;;;;5036735;28;20178;-74
2023/12/09 03:14:59;;;;;;;14.30;7.53;;;6.30;99.90;;;;;;5052074;28;20517;-75
2023/12/09 03:17:24;;;;;;;17.13;8.13;;;6.30;99.90;;;;;;5036621;28;20419;-74
2023/12/09 03:19:50;;;;;;;13.27;6.82;;;6.40;99.90;;;;;;5024359;28;20066;-75
2023/12/09 03:22:16;;;;;;;10.27;5.90;;;6.40;99.90;;;;;;5030941;28;20024;-75
2023/12/09 03:24:43;;;;;;;10.57;6.32;;;6.50;99.90;;;;;;5052295;28;20709;-74
2023/12/09 03:27:09;;;;;;;14.45;6.47;;;6.40;99.90;;;;;;5053172;28;20017;-74
2023/12/09 03:29:36;;;;;;;18.02;7.43;;;6.40;99.90;;;;;;5052106;28;20048;-74
2023/12/09 03:32:02;;;;;;;13.80;6.95;;;6.40;99.90;;;;;;5037108;28;20090;-74
2023/12/09 03:34:28;;;;;;;12.55;6.68;;;6.40;99.90;;;;;;5032590;28;20505;-74
2023/12/09 03:36:53;;;;;;;20.10;7.95;;;6.40;99.90;;;;;;5050301;28;20025;-74
2023/12/09 03:39:19;;;;;;;13.32;7.72;;;6.40;99.90;;;;;;5053514;28;20039;-74
2023/12/09 03:41:45;;;;;;;18.77;6.90;;;6.50;99.90;;;;;;5052807;28;20024;-74
2023/12/09 03:44:11;;;;;;;14.40;6.70;;;6.40;99.90;;;;;;5054149;28;20188;-74
2023/12/09 03:46:37;;;;;;;16.02;6.47;;;6.50;99.90;;;;;;5036341;28;20036;-75
2023/12/09 03:49:02;;;;;;;16.63;6.90;;;6.50;99.90;;;;;;5048925;28;20043;-75
2023/12/09 03:51:28;;;;;;;17.25;7.70;;;6.60;99.90;;;;;;5029360;28;20029;-75
2023/12/09 03:53:54;;;;;;;19.77;8.40;;;6.60;99.90;;;;;;5035344;28;20043;-75
2023/12/09 03:56:23;;;;;;;11.30;6.55;;;6.70;99.90;;;;;;5046381;28;20029;-74
2023/12/09 03:58:49;;;;;;;17.48;7.03;;;6.70;99.90;;;;;;5052343;28;20074;-75
2023/12/09 04:01:14;;;;;;;11.73;6.13;;;6.70;99.90;;;;;;5051840;28;20029;-75
2023/12/09 04:03:40;;;;;;;15.85;7.05;;;6.60;99.90;;;;;;5052406;28;20075;-74
2023/12/09 04:06:06;;;;;;;14.70;8.95;;;6.70;99.90;;;;;;5048248;28;20040;-74
2023/12/09 04:08:32;;;;;;;12.75;7.40;;;6.70;99.90;;;;;;5052043;28;20025;-74
2023/12/09 04:10:58;;;;;;;13.38;6.03;;;6.70;99.90;;;;;;5035283;28;20083;-74
2023/12/09 04:13:24;;;;;;;12.80;6.22;;;6.70;99.90;;;;;;5052476;28;20036;-75
2023/12/09 04:15:49;;;;;;;11.00;5.80;;;6.70;99.90;;;;;;5052095;28;20094;-74
2023/12/09 04:18:17;;;;;;;19.58;7.55;;;6.70;99.90;;;;;;5052575;28;20106;-74
2023/12/09 04:20:43;;;;;;;9.57;6.30;;;6.60;99.90;;;;;;5050534;28;20427;-75
2023/12/09 04:23:08;;;;;;;13.30;6.50;;;6.70;99.90;;;;;;5051329;28;20056;-74
2023/12/09 04:25:35;;;;;;;12.25;6.53;;;6.60;99.90;;;;;;5052110;28;20033;-74
2023/12/09 04:28:01;;;;;;;19.70;7.47;;;6.60;99.90;;;;;;5035918;28;20038;-74
2023/12/09 04:30:28;;;;;;;21.85;6.10;;;6.60;99.90;;;;;;5051203;28;20504;-75
2023/12/09 04:32:53;;;;;;;23.60;6.72;;;6.50;99.90;;;;;;5051991;28;20369;-75
2023/12/09 04:35:19;;;;;;;19.67;6.88;;;6.50;99.90;;;;;;5053132;28;20025;-75
2023/12/09 04:37:45;;;;;;;13.27;6.75;;;6.50;99.90;;;;;;5051736;28;20449;-75
2023/12/09 04:40:11;;;;;;;16.83;7.32;;;6.60;99.90;;;;;;5046917;28;20033;-75
2023/12/09 04:42:38;;;;;;;12.07;6.82;;;6.60;99.90;;;;;;5050135;28;20036;-76
2023/12/09 04:45:05;;;;;;;17.30;7.30;;;6.50;99.90;;;;;;5051635;28;20116;-74
2023/12/09 04:47:34;;;;;;;12.88;7.05;;;6.60;99.90;;;;;;5052020;28;20465;-75
2023/12/09 04:50:00;;;;;;;14.13;6.55;;;6.60;99.90;;;;;;5046139;28;20045;-75
2023/12/09 04:52:26;;;;;;;17.27;6.63;;;6.60;99.90;;;;;;5051698;28;20106;-74
2023/12/09 04:54:52;;;;;;;16.40;7.35;;;6.60;99.90;;;;;;5029727;28;20026;-74
2023/12/09 04:57:18;;;;;;;20.25;6.97;;;6.70;99.90;;;;;;5051698;28;20040;-74
2023/12/09 04:59:44;;;;;;;16.08;7.68;;;6.60;99.90;;;;;;5051557;28;20432;-75
2023/12/09 05:02:10;;;;;;;12.20;7.43;;;6.60;99.90;;;;;;5051408;28;20025;-74
2023/12/09 05:04:36;;;;;;;19.25;8.20;;;6.60;99.90;;;;;;5051867;28;20083;-74
2023/12/09 05:07:03;;;;;;;19.33;9.75;;;6.60;99.90;;;;;;5043092;28;20021;-74
2023/12/09 05:09:29;;;;;;;15.98;7.93;;;6.60;99.90;;;;;;5050418;28;20037;-74
2023/12/09 05:11:54;;;;;;;20.05;10.30;;;6.60;99.90;;;;;;5050313;28;20385;-75
2023/12/09 05:14:20;;;;;;;20.10;8.95;;;6.60;99.90;;;;;;5052188;28;20036;-74
2023/12/09 05:16:46;;;;;;;19.20;9.70;;;6.60;99.90;;;;;;5051047;28;20110;-75
2023/12/09 05:19:12;;;;;;;16.40;8.52;;;6.60;99.90;;;;;;5042932;28;20028;-74
2023/12/09 05:21:38;;;;;;;25.02;9.68;;;6.60;99.90;;;;;;5047959;28;20032;-75
2023/12/09 05:24:04;;;;;;;18.83;10.15;;;6.70;99.90;;;;;;5051048;28;20029;-75
2023/12/09 05:26:31;;;;;;;20.33;8.32;;;6.60;99.90;;;;;;5031128;28;20477;-75
2023/12/09 05:28:57;;;;;;;13.75;8.10;;;6.60;99.90;;;;;;5050418;28;20028;-75
2023/12/09 05:31:24;;;;;;;18.60;8.43;;;6.60;99.90;;;;;;5050729;28;20420;-74
2023/12/09 05:33:50;;;;;;;20.08;8.88;;;6.60;99.90;;;;;;5052049;28;20060;-74
2023/12/09 05:36:16;;;;;;;22.63;8.57;;;6.60;99.90;;;;;;5050734;28;20532;-75
2023/12/09 05:38:43;;;;;;;23.88;9.52;;;6.60;99.90;;;;;;5050353;28;20033;-76
2023/12/09 05:41:40;;;;;;;19.83;8.50;;;6.60;99.90;;;;;;5051303;28;20098;-75
2023/12/09 05:44:05;;;;;;;16.45;8.00;;;6.60;99.90;;;;;;5045600;28;20460;-75
2023/12/09 05:46:31;;;;;;;20.02;8.30;;;6.70;99.90;;;;;;5049174;28;20085;-74
2023/12/09 05:48:57;;;;;;;20.50;9.45;;;6.60;99.90;;;;;;5044307;28;20037;-75
2023/12/09 05:51:23;;;;;;;23.30;8.40;;;6.70;99.90;;;;;;5047786;28;20569;-75
2023/12/09 05:53:48;;;;;;;23.38;8.13;;;6.60;99.90;;;;;;5051313;28;20033;-75
2023/12/09 05:56:15;;;;;;;14.25;7.82;;;6.70;99.90;;;;;;5055851;28;20032;-76
2023/12/09 05:58:41;;;;;;;12.98;8.02;;;6.70;99.90;;;;;;5055195;28;20025;-76
2023/12/09 06:01:07;;;;;;;16.17;8.88;;;6.70;99.90;;;;;;5055132;28;20028;-76
2023/12/09 06:03:33;;;;;;;18.80;8.68;;;6.70;99.90;;;;;;5054192;28;20033;-77
2023/12/09 06:05:59;;;;;;;23.40;10.45;;;6.70;99.90;;;;;;5055435;28;20397;-76
2023/12/09 06:08:25;;;;;;;18.77;9.13;;;6.70;99.90;;;;;;5035676;28;20025;-76
2023/12/09 06:10:51;;;;;;;15.18;8.10;;;6.70;99.90;;;;;;5051895;28;20057;-76
2023/12/09 06:13:17;;;;;;;22.58;9.13;;;6.70;99.90;;;;;;5034067;28;20021;-76
2023/12/09 06:15:43;;;;;;;22.55;9.45;;;6.70;99.90;;;;;;5044604;28;20385;-76
2023/12/09 06:18:09;;;;;;;16.48;8.52;;;6.70;99.90;;;;;;5045962;28;20568;-75
2023/12/09 06:20:35;;;;;;;15.93;9.35;;;6.70;99.90;;;;;;5049474;28;20120;-75
2023/12/09 06:23:01;;;;;;;30.83;10.30;;;6.60;99.90;;;;;;5051766;28;20025;-74
2023/12/09 06:25:26;;;;;;;21.45;9.27;;;6.60;99.90;;;;;;5050970;28;20070;-75
2023/12/09 06:27:53;;;;;;;21.80;8.73;;;6.60;99.90;;;;;;5051249;28;20553;-75
2023/12/09 06:30:18;;;;;;;22.42;7.00;;;6.60;99.90;;;;;;5049346;28;20033;-75
2023/12/09 06:32:44;;;;;;;19.25;7.70;;;6.60;99.90;;;;;;5051231;28;20031;-76
2023/12/09 06:35:10;;;;;;;20.02;8.75;;;6.70;99.90;;;;;;5051165;28;20090;-76
2023/12/09 06:37:36;;;;;;;19.77;7.13;;;6.70;99.90;;;;;;5048965;28;20029;-75
2023/12/09 06:40:01;;;;;;;19.15;8.07;;;6.70;99.90;;;;;;5042363;28;20112;-76
2023/12/09 06:42:27;;;;;;;27.10;10.05;;;6.70;99.90;;;;;;5046080;28;20021;-76
2023/12/09 06:44:53;;;;;;;15.50;8.07;;;6.70;99.90;;;;;;5041380;28;20037;-76
2023/12/09 06:47:19;;;;;;;17.75;8.60;;;6.70;99.90;;;;;;5046101;28;20036;-76
2023/12/09 06:49:44;;;;;;;18.10;8.40;;;6.60;99.90;;;;;;5051547;28;20044;-76
2023/12/09 06:52:10;;;;;;;19.50;8.90;;;6.60;99.90;;;;;;5042090;28;20029;-75
2023/12/09 06:54:36;;;;;;;20.17;8.65;;;6.60;99.90;;;;;;5050839;28;20370;-73
2023/12/09 06:57:02;;;;;;;12.65;8.02;;;6.60;99.90;;;;;;5046354;28;20064;-73
2023/12/09 06:59:27;;;;;;;17.40;8.15;;;6.60;99.90;;;;;;5041691;28;20120;-73
2023/12/09 07:01:59;;;;;;;15.73;7.88;;;6.60;99.90;;;;;;5040793;28;20036;-72
2023/12/09 07:04:25;;;;;;;13.00;7.22;;;6.60;99.90;;;;;;5044529;28;20021;-72
2023/12/09 07:06:51;;;;;;;14.45;8.10;;;6.60;99.90;;;;;;5049150;28;20025;-71
2023/12/09 07:09:16;;;;;;;23.63;8.10;;;6.60;99.90;;;;;;5044329;28;20025;-74
2023/12/09 07:11:42;;;;;;;19.50;8.38;;;6.60;99.90;;;;;;5048156;28;20040;-72
2023/12/09 07:14:09;;;;;;;5.65;2.97;;;6.60;99.90;;;;;;5049994;28;20436;-72
2023/12/09 07:16:37;;;;;;;18.75;9.02;;;6.60;99.90;;;;;;5048922;28;20056;-72
2023/12/09 07:19:02;;;;;;;16.70;6.80;;;6.60;99.90;;;;;;5041530;28;20048;-71
2023/12/09 07:21:28;;;;;;;17.17;8.52;;;6.60;99.90;;;;;;5045166;28;20076;-72
2023/12/09 07:23:55;;;;;;;13.77;7.00;;;6.60;99.90;;;;;;5050967;28;20148;-73
2023/12/09 07:26:22;;;;;;;18.30;7.15;;;6.60;99.90;;;;;;5049063;28;20021;-71
2023/12/09 07:28:47;;;;;;;13.52;7.15;;;6.60;99.90;;;;;;5032407;28;20481;-71
2023/12/09 07:31:14;;;;;;;16.52;8.05;;;6.60;99.90;;;;;;5049039;28;20040;-71
2023/12/09 07:33:40;;;;;;;17.88;6.82;;;6.60;99.90;;;;;;5041221;28;20040;-72
2023/12/09 07:36:06;;;;;;;25.45;7.57;;;6.60;99.90;;;;;;5028173;28;20029;-73
2023/12/09 07:38:32;;;;;;;16.60;8.27;;;6.60;99.90;;;;;;5044901;28;20039;-73
2023/12/09 07:40:58;;;;;;;24.23;8.90;;;6.70;99.90;;;;;;5065613;28;20120;-74
2023/12/09 07:43:24;;;;;;;23.75;6.88;;;6.70;99.90;;;;;;5050680;28;20021;-73
2023/12/09 07:45:49;;;;;;;16.83;7.88;;;6.70;99.90;;;;;;5045783;28;20026;-73
2023/12/09 07:48:15;;;;;;;16.88;7.88;;;6.70;99.90;;;;;;5049914;28;20029;-73
2023/12/09 07:50:41;;;;;;;20.27;9.38;;;6.70;99.90;;;;;;5049909;28;20116;-73
2023/12/09 07:53:06;;;;;;;17.13;7.15;;;6.80;99.90;;;;;;5038036;28;20029;-73
2023/12/09 07:55:32;;;;;;;18.45;8.68;;;6.80;99.90;;;;;;5027747;28;20082;-72
2023/12/09 07:57:58;;;;;;;19.98;9.10;;;6.80;99.90;;;;;;5035430;28;20032;-72
2023/12/09 08:00:27;;;;;;;11.07;6.38;;;6.80;99.90;;;;;;5052678;28;20116;-70
2023/12/09 08:02:56;;;;;;;21.73;8.23;;;6.90;99.90;;;;;;5052749;28;20055;-73
2023/12/09 08:05:24;;;;;;;12.20;6.43;;;6.90;99.90;;;;;;5045351;28;20025;-72
2023/12/09 08:07:50;;;;;;;21.42;8.13;;;6.90;99.90;;;;;;5053789;28;20025;-73
2023/12/09 08:10:16;;;;;;;14.70;8.00;;;6.90;99.90;;;;;;5053029;28;20021;-73
2023/12/09 08:12:42;;;;;;;29.10;10.27;;;6.90;99.90;;;;;;5049367;28;20033;-73
2023/12/09 08:15:09;;;;;;;25.30;8.52;;;6.90;99.90;;;;;;5042180;28;20101;-73
2023/12/09 08:17:34;;;;;;;21.27;8.73;;;6.90;99.90;;;;;;5028837;28;20041;-73
2023/12/09 08:20:00;;;;;;;20.42;7.28;;;7.00;99.90;;;;;;5052566;28;20236;-74
2023/12/09 08:22:26;;;;;;;28.42;9.52;;;7.00;99.90;;;;;;5052123;28;20134;-75
2023/12/09 08:24:52;;;;;;;16.48;7.32;;;7.00;99.90;;;;;;5052419;28;20036;-73
2023/12/09 08:27:18;;;;;;;22.48;8.68;;;7.10;99.90;;;;;;5044862;28;20021;-74
2023/12/09 08:29:44;;;;;;;15.25;7.95;;;7.20;99.90;;;;;;5044013;28;20120;-75
2023/12/09 08:32:10;;;;;;;15.75;7.90;;;7.20;99.90;;;;;;5051866;28;20167;-74
2023/12/09 08:34:35;;;;;;;15.60;8.90;;;7.20;99.90;;;;;;5053606;28;20044;-74
2023/12/09 08:37:01;;;;;;;10.75;5.85;;;7.20;99.90;;;;;;5053097;28;20021;-74
2023/12/09 08:39:27;;;;;;;13.15;7.20;;;7.20;99.90;;;;;;5051877;28;20029;-74
2023/12/09 08:41:53;;;;;;;16.33;6.93;;;7.20;99.90;;;;;;5050255;28;20040;-73
2023/12/09 08:44:19;;;;;;;16.00;7.55;;;7.30;99.90;;;;;;5048082;28;20100;-73
2023/12/09 08:46:45;;;;;;;12.00;6.18;;;7.30;99.90;;;;;;5045596;28;20043;-73
2023/12/09 08:49:11;;;;;;;15.93;7.00;;;7.30;99.90;;;;;;5051747;28;20063;-74
2023/12/09 08:51:45;;;;;;;15.60;6.40;;;7.40;99.90;;;;;;5048297;28;20028;-73
2023/12/09 08:54:11;;;;;;;16.63;6.28;;;7.40;99.90;;;;;;5040356;28;20029;-74
2023/12/09 08:56:37;;;;;;;9.20;4.45;;;7.40;99.90;;;;;;5037233;28;20044;-73
2023/12/09 08:59:07;;;;;;;8.02;5.18;;;7.40;99.90;;;;;;5051292;28;20033;-72
2023/12/09 09:01:34;;;;;;;12.00;6.10;;;7.50;99.90;;;;;;5052768;28;20033;-72
2023/12/09 09:04:01;;;;;;;10.02;6.53;;;7.50;99.90;;;;;;5044739;28;20016;-71
2023/12/09 09:06:27;;;;;;;18.92;8.38;;;7.50;99.90;;;;;;5052618;28;20389;-70
2023/12/09 09:08:52;;;;;;;28.52;7.07;;;7.50;99.90;;;;;;5050180;28;20374;-70
2023/12/09 09:11:20;;;;;;;17.25;6.32;;;7.50;99.90;;;;;;5052347;28;20135;-71
2023/12/09 09:13:46;;;;;;;14.40;5.20;;;7.60;99.90;;;;;;5053048;28;20481;-71
2023/12/09 09:16:14;;;;;;;16.95;6.88;;;7.60;99.90;;;;;;5051125;28;20071;-71
2023/12/09 09:18:39;;;;;;;15.00;6.65;;;7.50;99.90;;;;;;5050655;28;20063;-71
2023/12/09 09:21:05;;;;;;;17.30;7.20;;;7.60;99.90;;;;;;5039280;28;20037;-71
2023/12/09 09:23:31;;;;;;;11.77;6.78;;;7.60;99.90;;;;;;5048119;28;20507;-71
2023/12/09 09:25:58;;;;;;;14.20;6.72;;;7.60;99.90;;;;;;5051890;28;20499;-71
2023/12/09 09:28:23;;;;;;;14.18;5.95;;;7.60;99.90;;;;;;5050654;28;20120;-71
2023/12/09 09:30:49;;;;;;;14.65;6.20;;;7.70;99.90;;;;;;5043694;28;20043;-71
2023/12/09 09:33:15;;;;;;;12.15;6.68;;;7.70;99.90;;;;;;5052341;28;20028;-71
2023/12/09 09:35:41;;;;;;;17.83;8.65;;;7.80;99.90;;;;;;5050529;28;20116;-71
2023/12/09 09:38:06;;;;;;;16.40;5.80;;;7.90;99.90;;;;;;5052155;28;20135;-72
2023/12/09 09:40:32;;;;;;;15.43;6.10;;;7.90;99.90;;;;;;5050384;28;20428;-74
2023/12/09 09:43:08;;;;;;;19.40;5.55;;;7.90;99.90;;;;;;5042337;28;20125;-75
2023/12/09 09:45:36;;;;;;;14.10;5.80;;;8.00;99.90;;;;;;5051075;28;20057;-74
2023/12/09 09:48:05;;;;;;;20.17;7.70;;;8.00;99.90;;;;;;5047745;28;20021;-74
2023/12/09 09:50:56;;;;;;;12.27;5.25;;;8.00;99.90;;;;;;5043238;28;20039;-74
2023/12/09 09:53:53;;;;;;;10.00;4.57;;;8.00;99.90;;;;;;5060420;28;20055;-74
2023/12/09 09:56:21;;;;;;;10.82;5.63;;;8.00;99.90;;;;;;5027259;28;20029;-75
2023/12/09 09:58:47;;;;;;;8.57;5.28;;;8.10;99.90;;;;;;5049010;28;20037;-75
2023/12/09 10:01:14;;;;;;;16.23;5.95;;;8.20;99.90;;;;;;5026722;28;20025;-74
2023/12/09 10:03:40;;;;;;;12.35;5.97;;;8.20;99.90;;;;;;5046847;28;20029;-75
2023/12/09 10:06:06;;;;;;;10.40;5.63;;;8.20;99.90;;;;;;5026405;28;20028;-75
2023/12/09 10:08:32;;;;;;;9.88;4.00;;;8.20;99.90;;;;;;5033007;28;20128;-75
2023/12/09 10:10:58;;;;;;;9.05;3.97;;;8.10;99.90;;;;;;5049016;28;20123;-75
2023/12/09 10:13:23;;;;;;;11.10;4.57;;;8.10;99.90;;;;;;5045259;28;20493;-75
2023/12/09 10:15:49;;;;;;;11.98;5.13;;;8.10;99.90;;;;;;5049999;28;20037;-75
2023/12/09 10:18:15;;;;;;;9.88;4.50;;;8.20;99.90;;;;;;5043056;28;20040;-74
2023/12/09 10:20:43;;;;;;;10.95;6.50;;;8.10;99.90;;;;;;5040820;28;20390;-73
2023/12/09 10:23:09;;;;;;;12.38;6.30;;;8.10;99.90;;;;;;5043242;28;20039;-73
2023/12/09 10:25:35;;;;;;;13.57;4.95;;;8.20;99.90;;;;;;5066957;28;20041;-73
2023/12/09 10:28:01;;;;;;;16.70;5.15;;;8.20;99.90;;;;;;5050730;28;20385;-74
2023/12/09 10:30:27;;;;;;;10.57;6.20;;;8.20;99.90;;;;;;5042934;28;20389;-74
2023/12/09 10:32:53;;;;;;;16.90;5.75;;;8.30;99.90;;;;;;5050521;28;20032;-74
2023/12/09 10:35:20;;;;;;;7.45;4.45;;;8.30;99.90;;;;;;5047938;28;20489;-74
2023/12/09 10:37:49;;;;;;;8.50;4.55;;;8.20;99.90;;;;;;5018840;28;20420;-74
2023/12/09 10:40:15;;;;;;;11.00;5.07;;;8.20;99.90;;;;;;5035773;28;20072;-73
2023/12/09 10:42:41;;;;;;;12.93;5.60;;;8.20;99.90;;;;;;5050798;28;20128;-74
2023/12/09 10:45:08;;;;;;;15.82;4.85;;;8.30;99.90;;;;;;5035207;28;20025;-73
2023/12/09 10:47:34;;;;;;;11.85;4.35;;;8.30;99.90;;;;;;5049742;28;20029;-76
2023/12/09 10:50:02;;;;;;;7.35;3.80;;;8.30;99.90;;;;;;5048674;28;20032;-74
2023/12/09 10:52:29;;;;;;;5.13;3.38;;;8.40;99.90;;;;;;5033453;28;20396;-73
2023/12/09 10:54:55;;;;;;;5.68;3.53;;;8.30;99.90;;;;;;5048803;28;20036;-74
2023/12/09 10:57:23;;;;;;;8.15;4.45;;;8.30;99.90;;;;;;5043935;28;20029;-74
2023/12/09 10:59:49;;;;;;;8.57;4.63;;;8.40;99.90;;;;;;5049775;28;20517;-74
2023/12/09 11:02:16;;;;;;;9.20;5.53;;;8.40;99.90;;;;;;5049747;28;20032;-74
2023/12/09 11:04:42;;;;;;;7.28;2.90;;;8.40;99.90;;;;;;5040918;28;20035;-74
2023/12/09 11:07:09;;;;;;;11.65;3.53;;;8.40;99.90;;;;;;5033281;28;20087;-75
2023/12/09 11:09:35;;;;;;;11.55;2.83;;;8.50;99.90;;;;;;5025722;28;20158;-74
2023/12/09 11:12:01;;;;;;;12.23;3.05;;;8.50;99.90;;;;;;5040434;28;20431;-73
2023/12/09 11:14:28;;;;;;;5.63;2.85;;;8.50;99.90;;;;;;5045039;28;20063;-73
2023/12/09 11:16:56;;;;;;;7.03;3.33;;;8.50;99.90;;;;;;5047557;28;20056;-72
2023/12/09 11:19:23;;;;;;;8.05;2.95;;;8.60;99.90;;;;;;5046051;28;20063;-71
2023/12/09 11:21:49;;;;;;;7.35;2.65;;;8.50;99.90;;;;;;5040166;28;20036;-71
2023/12/09 11:24:18;;;;;;;5.32;2.22;;;8.50;99.90;;;;;;5039101;28;20440;-71
2023/12/09 11:26:45;;;;;;;4.60;2.67;;;8.50;99.90;;;;;;5044637;28;20030;-71
2023/12/09 11:29:14;;;;;;;7.88;3.40;;;8.50;99.90;;;;;;5040338;28;20025;-71
2023/12/09 11:31:49;;;;;;;8.93;1.95;;;8.60;99.90;;;;;;5050841;28;20135;-71
2023/12/09 11:34:20;;;;;;;3.47;2.00;;;8.60;99.90;;;;;;5042681;28;20022;-70
2023/12/09 11:36:49;;;;;;;11.40;3.17;;;8.70;99.90;;;;;;5051083;28;20033;-70
2023/12/09 11:39:18;;;;;;;12.38;3.08;;;8.90;99.90;;;;;;5036538;28;20017;-71
2023/12/09 11:41:44;;;;;;;9.75;2.03;;;8.90;99.90;;;;;;5049258;28;20044;-71
2023/12/09 11:44:11;;;;;;;12.35;2.22;;;8.90;99.90;;;;;;5047894;28;20108;-71
2023/12/09 11:46:38;;;;;;;5.50;2.13;;;9.00;99.90;;;;;;5042748;28;20025;-71
2023/12/09 11:49:06;;;;;;;3.05;1.98;;;9.00;99.90;;;;;;5034480;28;20048;-70
2023/12/09 11:51:36;;;;;;;4.18;1.83;;;9.00;99.90;;;;;;5052809;28;20497;-71
2023/12/09 11:54:05;;;;;;;4.82;2.15;;;9.00;99.90;;;;;;5035716;28;20436;-71
2023/12/09 11:56:31;;;;;;;19.38;2.13;;;9.10;99.90;;;;;;5052561;28;20444;-72
2023/12/09 11:58:57;;;;;;;4.13;1.50;;;9.10;99.90;;;;;;5051614;28;20120;-71
2023/12/09 12:01:25;;;;;;;3.80;1.88;;;9.10;99.90;;;;;;5052556;28;20389;-72
2023/12/09 12:03:52;;;;;;;6.72;1.60;;;9.00;99.90;;;;;;5053098;28;20021;-72
2023/12/09 12:06:19;;;;;;;4.78;1.73;;;9.10;99.90;;;;;;5025642;28;20029;-72
2023/12/09 12:08:51;;;;;;;3.78;1.63;;;9.10;99.90;;;;;;5029884;28;20029;-72
2023/12/09 12:11:20;;;;;;;5.90;1.73;;;9.00;99.90;;;;;;5052482;28;20032;-72
2023/12/09 12:13:47;;;;;;;7.63;1.48;;;9.00;99.90;;;;;;5042318;28;20037;-72
2023/12/09 12:16:16;;;;;;;3.88;1.60;;;9.00;99.90;;;;;;5052549;28;20041;-72
2023/12/09 12:18:42;;;;;;;9.07;1.65;;;9.00;99.90;;;;;;5050827;28;20040;-72
2023/12/09 12:21:08;;;;;;;3.83;1.92;;;8.90;99.90;;;;;;5053850;28;20029;-72
2023/12/09 12:23:35;;;;;;;5.22;1.35;;;8.90;99.90;;;;;;5045421;28;20140;-72
2023/12/09 12:26:01;;;;;;;9.63;1.38;;;9.00;99.90;;;;;;5053532;28;20029;-70
2023/12/09 12:28:27;;;;;;;1.63;1.02;;;9.00;99.90;;;;;;5051208;28;20028;-72
2023/12/09 12:31:01;;;;;;;5.20;1.70;;;9.00;99.90;;;;;;5043133;28;20037;-72
2023/12/09 12:33:31;;;;;;;5.45;1.70;;;9.00;99.90;;;;;;5040709;28;20035;-72
2023/12/09 12:35:58;;;;;;;4.30;2.28;;;9.10;99.90;;;;;;5048851;28;20039;-71
2023/12/09 12:38:25;;;;;;;4.07;1.40;;;9.20;99.90;;;;;;5033868;28;20501;-72
2023/12/09 12:40:54;;;;;;;2.60;1.40;;;9.20;99.90;;;;;;5042708;28;20025;-72
2023/12/09 12:43:20;;;;;;;3.67;1.55;;;9.20;99.90;;;;;;5023452;28;20543;-72
2023/12/09 12:45:53;;;;;;;4.65;1.30;;;9.30;99.90;;;;;;5049974;28;20115;-72